sensor_id;sensor_type;location;lat;lon;timestamp;temperature;humidity
1107;DHT22;540;49.448;8.612;2022-08-19T00:01:41;23.10;89.00
1107;DHT22;540;49.448;8.612;2022-08-19T00:04:12;23.00;89.30
1107;DHT22;540;49.448;8.612;2022-08-19T00:06:43;23.00;90.00
1107;DHT22;540;49.448;8.612;2022-08-19T00:09:14;22.90;90.30
1107;DHT22;540;49.448;8.612;2022-08-19T00:11:42;23.00;90.80
1107;DHT22;540;49.448;8.612;2022-08-19T00:14:13;22.90;91.00
1107;DHT22;540;49.448;8.612;2022-08-19T00:16:44;23.10;90.90
1107;DHT22;540;49.448;8.612;2022-08-19T00:19:14;23.10;90.30
1107;DHT22;540;49.448;8.612;2022-08-19T00:21:43;23.10;90.00
1107;DHT22;540;49.448;8.612;2022-08-19T00:24:12;23.10;88.80
1107;DHT22;540;49.448;8.612;2022-08-19T00:26:42;23.10;89.40
1107;DHT22;540;49.448;8.612;2022-08-19T00:29:16;23.20;88.60
1107;DHT22;540;49.448;8.612;2022-08-19T00:31:46;23.00;88.30
1107;DHT22;540;49.448;8.612;2022-08-19T00:34:16;23.40;87.90
1107;DHT22;540;49.448;8.612;2022-08-19T00:36:45;23.30;87.10
1107;DHT22;540;49.448;8.612;2022-08-19T00:39:14;23.30;86.00
1107;DHT22;540;49.448;8.612;2022-08-19T00:41:44;23.30;85.00
1107;DHT22;540;49.448;8.612;2022-08-19T00:44:27;23.30;85.10
1107;DHT22;540;49.448;8.612;2022-08-19T00:47:10;23.30;84.80
1107;DHT22;540;49.448;8.612;2022-08-19T00:49:43;23.20;84.90
1107;DHT22;540;49.448;8.612;2022-08-19T00:52:14;23.20;85.30
1107;DHT22;540;49.448;8.612;2022-08-19T00:54:43;23.30;85.50
1107;DHT22;540;49.448;8.612;2022-08-19T00:57:26;23.20;85.00
1107;DHT22;540;49.448;8.612;2022-08-19T00:59:58;23.20;85.80
1107;DHT22;540;49.448;8.612;2022-08-19T01:02:31;23.00;87.10
1107;DHT22;540;49.448;8.612;2022-08-19T01:05:00;22.90;88.30
1107;DHT22;540;49.448;8.612;2022-08-19T01:07:29;23.10;88.00
1107;DHT22;540;49.448;8.612;2022-08-19T01:10:09;23.20;88.20
1107;DHT22;540;49.448;8.612;2022-08-19T01:12:40;23.20;89.30
1107;DHT22;540;49.448;8.612;2022-08-19T01:15:12;23.20;88.50
1107;DHT22;540;49.448;8.612;2022-08-19T01:17:42;23.20;88.50
1107;DHT22;540;49.448;8.612;2022-08-19T01:20:11;23.20;88.40
1107;DHT22;540;49.448;8.612;2022-08-19T01:22:44;23.10;88.60
1107;DHT22;540;49.448;8.612;2022-08-19T01:25:21;23.20;88.20
1107;DHT22;540;49.448;8.612;2022-08-19T01:27:52;23.10;88.30
1107;DHT22;540;49.448;8.612;2022-08-19T01:30:22;23.20;89.60
1107;DHT22;540;49.448;8.612;2022-08-19T01:32:51;23.20;88.10
1107;DHT22;540;49.448;8.612;2022-08-19T01:35:21;23.20;88.70
1107;DHT22;540;49.448;8.612;2022-08-19T01:37:58;23.10;88.60
1107;DHT22;540;49.448;8.612;2022-08-19T01:40:30;23.00;89.30
1107;DHT22;540;49.448;8.612;2022-08-19T01:42:59;22.90;90.00
1107;DHT22;540;49.448;8.612;2022-08-19T01:45:28;23.00;90.30
1107;DHT22;540;49.448;8.612;2022-08-19T01:47:57;22.90;90.40
1107;DHT22;540;49.448;8.612;2022-08-19T01:50:34;22.90;90.40
1107;DHT22;540;49.448;8.612;2022-08-19T01:53:10;22.80;90.90
1107;DHT22;540;49.448;8.612;2022-08-19T01:55:40;22.80;90.90
1107;DHT22;540;49.448;8.612;2022-08-19T01:58:11;22.90;90.80
1107;DHT22;540;49.448;8.612;2022-08-19T02:00:40;22.80;90.90
1107;DHT22;540;49.448;8.612;2022-08-19T02:03:08;22.90;90.60
1107;DHT22;540;49.448;8.612;2022-08-19T02:05:41;22.90;90.40
1107;DHT22;540;49.448;8.612;2022-08-19T02:08:11;22.90;90.20
1107;DHT22;540;49.448;8.612;2022-08-19T02:10:42;22.80;89.70
1107;DHT22;540;49.448;8.612;2022-08-19T02:13:10;22.80;90.00
1107;DHT22;540;49.448;8.612;2022-08-19T02:15:38;22.90;89.60
1107;DHT22;540;49.448;8.612;2022-08-19T02:18:08;22.70;89.20
1107;DHT22;540;49.448;8.612;2022-08-19T02:20:38;22.70;90.00
1107;DHT22;540;49.448;8.612;2022-08-19T02:23:06;22.80;90.20
1107;DHT22;540;49.448;8.612;2022-08-19T02:25:46;22.80;90.20
1107;DHT22;540;49.448;8.612;2022-08-19T02:28:14;22.70;90.60
1107;DHT22;540;49.448;8.612;2022-08-19T02:30:45;22.90;90.90
1107;DHT22;540;49.448;8.612;2022-08-19T02:33:14;22.70;90.80
1107;DHT22;540;49.448;8.612;2022-08-19T02:35:43;22.70;91.10
1107;DHT22;540;49.448;8.612;2022-08-19T02:38:11;22.70;91.00
1107;DHT22;540;49.448;8.612;2022-08-19T02:40:57;22.70;91.30
1107;DHT22;540;49.448;8.612;2022-08-19T02:43:27;22.80;91.90
1107;DHT22;540;49.448;8.612;2022-08-19T02:46:12;22.60;92.20
1107;DHT22;540;49.448;8.612;2022-08-19T02:48:40;22.60;92.30
1107;DHT22;540;49.448;8.612;2022-08-19T02:51:08;22.80;91.90
1107;DHT22;540;49.448;8.612;2022-08-19T02:53:36;22.70;91.80
1107;DHT22;540;49.448;8.612;2022-08-19T02:56:07;22.80;92.30
1107;DHT22;540;49.448;8.612;2022-08-19T02:58:37;22.60;92.10
1107;DHT22;540;49.448;8.612;2022-08-19T03:01:05;22.60;92.20
1107;DHT22;540;49.448;8.612;2022-08-19T03:03:33;22.70;91.70
1107;DHT22;540;49.448;8.612;2022-08-19T03:06:06;22.80;91.40
1107;DHT22;540;49.448;8.612;2022-08-19T03:08:35;22.80;91.00
1107;DHT22;540;49.448;8.612;2022-08-19T03:11:03;22.70;90.50
1107;DHT22;540;49.448;8.612;2022-08-19T03:13:33;22.60;90.20
1107;DHT22;540;49.448;8.612;2022-08-19T03:16:04;22.70;90.40
1107;DHT22;540;49.448;8.612;2022-08-19T03:18:32;22.60;90.40
1107;DHT22;540;49.448;8.612;2022-08-19T03:21:00;22.60;90.70
1107;DHT22;540;49.448;8.612;2022-08-19T03:23:28;22.60;91.10
1107;DHT22;540;49.448;8.612;2022-08-19T03:25:56;22.70;90.60
1107;DHT22;540;49.448;8.612;2022-08-19T03:28:44;22.70;90.50
1107;DHT22;540;49.448;8.612;2022-08-19T03:31:25;22.80;90.90
1107;DHT22;540;49.448;8.612;2022-08-19T03:34:16;22.60;90.70
1107;DHT22;540;49.448;8.612;2022-08-19T03:36:45;22.60;90.60
1107;DHT22;540;49.448;8.612;2022-08-19T03:39:14;22.60;90.90
1107;DHT22;540;49.448;8.612;2022-08-19T03:41:43;22.50;90.80
1107;DHT22;540;49.448;8.612;2022-08-19T03:44:18;22.50;90.80
1107;DHT22;540;49.448;8.612;2022-08-19T03:46:48;22.50;90.90
1107;DHT22;540;49.448;8.612;2022-08-19T03:49:17;22.30;90.80
1107;DHT22;540;49.448;8.612;2022-08-19T03:51:47;22.40;91.30
1107;DHT22;540;49.448;8.612;2022-08-19T03:54:16;22.40;91.40
1107;DHT22;540;49.448;8.612;2022-08-19T03:56:47;22.10;91.90
1107;DHT22;540;49.448;8.612;2022-08-19T03:59:18;22.00;92.10
1107;DHT22;540;49.448;8.612;2022-08-19T04:01:47;22.30;92.50
1107;DHT22;540;49.448;8.612;2022-08-19T04:04:15;22.40;92.50
1107;DHT22;540;49.448;8.612;2022-08-19T04:06:45;22.30;92.70
1107;DHT22;540;49.448;8.612;2022-08-19T04:09:13;22.20;92.60
1107;DHT22;540;49.448;8.612;2022-08-19T04:11:44;22.10;93.10
1107;DHT22;540;49.448;8.612;2022-08-19T04:14:16;22.20;93.20
1107;DHT22;540;49.448;8.612;2022-08-19T04:16:46;22.20;93.50
1107;DHT22;540;49.448;8.612;2022-08-19T04:19:16;22.10;93.40
1107;DHT22;540;49.448;8.612;2022-08-19T04:21:46;22.20;93.50
1107;DHT22;540;49.448;8.612;2022-08-19T04:24:14;21.70;93.50
1107;DHT22;540;49.448;8.612;2022-08-19T04:26:43;22.10;93.50
1107;DHT22;540;49.448;8.612;2022-08-19T04:29:14;21.80;93.20
1107;DHT22;540;49.448;8.612;2022-08-19T04:31:44;22.20;93.30
1107;DHT22;540;49.448;8.612;2022-08-19T04:34:15;22.20;93.50
1107;DHT22;540;49.448;8.612;2022-08-19T04:36:44;22.20;93.50
1107;DHT22;540;49.448;8.612;2022-08-19T04:39:14;22.10;93.80
1107;DHT22;540;49.448;8.612;2022-08-19T04:41:42;22.10;94.00
1107;DHT22;540;49.448;8.612;2022-08-19T04:44:29;22.10;93.90
1107;DHT22;540;49.448;8.612;2022-08-19T04:47:00;22.10;94.00
1107;DHT22;540;49.448;8.612;2022-08-19T04:49:37;21.50;94.20
1107;DHT22;540;49.448;8.612;2022-08-19T04:52:05;22.00;94.70
1107;DHT22;540;49.448;8.612;2022-08-19T04:54:33;21.90;95.00
1107;DHT22;540;49.448;8.612;2022-08-19T04:57:05;21.40;95.10
1107;DHT22;540;49.448;8.612;2022-08-19T04:59:37;21.80;95.60
1107;DHT22;540;49.448;8.612;2022-08-19T05:02:07;21.80;95.90
1107;DHT22;540;49.448;8.612;2022-08-19T05:04:36;21.80;96.20
1107;DHT22;540;49.448;8.612;2022-08-19T05:07:06;21.70;96.70
1107;DHT22;540;49.448;8.612;2022-08-19T05:09:34;21.80;97.00
1107;DHT22;540;49.448;8.612;2022-08-19T05:12:22;21.90;96.40
1107;DHT22;540;49.448;8.612;2022-08-19T05:14:55;22.10;95.90
1107;DHT22;540;49.448;8.612;2022-08-19T05:17:26;22.00;95.80
1107;DHT22;540;49.448;8.612;2022-08-19T05:19:59;22.00;96.10
1107;DHT22;540;49.448;8.612;2022-08-19T05:22:46;22.10;95.90
1107;DHT22;540;49.448;8.612;2022-08-19T05:25:17;22.00;95.90
1107;DHT22;540;49.448;8.612;2022-08-19T05:27:46;22.10;95.60
1107;DHT22;540;49.448;8.612;2022-08-19T05:30:15;22.20;95.20
1107;DHT22;540;49.448;8.612;2022-08-19T05:32:44;22.30;94.60
1107;DHT22;540;49.448;8.612;2022-08-19T05:35:12;22.30;94.30
1107;DHT22;540;49.448;8.612;2022-08-19T05:37:40;22.40;93.80
1107;DHT22;540;49.448;8.612;2022-08-19T05:40:09;22.50;93.40
1107;DHT22;540;49.448;8.612;2022-08-19T05:42:37;22.50;92.90
1107;DHT22;540;49.448;8.612;2022-08-19T05:45:06;22.70;92.70
1107;DHT22;540;49.448;8.612;2022-08-19T05:47:34;22.70;92.30
1107;DHT22;540;49.448;8.612;2022-08-19T05:50:09;23.00;91.80
1107;DHT22;540;49.448;8.612;2022-08-19T05:52:37;22.90;91.30
1107;DHT22;540;49.448;8.612;2022-08-19T05:55:11;22.90;91.20
1107;DHT22;540;49.448;8.612;2022-08-19T05:57:40;23.10;90.80
1107;DHT22;540;49.448;8.612;2022-08-19T06:00:09;23.10;90.20
1107;DHT22;540;49.448;8.612;2022-08-19T06:02:38;23.00;90.40
1107;DHT22;540;49.448;8.612;2022-08-19T06:05:09;23.00;90.20
1107;DHT22;540;49.448;8.612;2022-08-19T06:07:38;23.00;90.10
1107;DHT22;540;49.448;8.612;2022-08-19T06:10:08;23.00;90.20
1107;DHT22;540;49.448;8.612;2022-08-19T06:12:37;23.00;90.00
1107;DHT22;540;49.448;8.612;2022-08-19T06:15:09;23.20;89.70
1107;DHT22;540;49.448;8.612;2022-08-19T06:17:37;23.20;88.30
1107;DHT22;540;49.448;8.612;2022-08-19T06:20:09;23.30;88.10
1107;DHT22;540;49.448;8.612;2022-08-19T06:22:40;23.20;87.70
1107;DHT22;540;49.448;8.612;2022-08-19T06:25:08;23.20;88.20
1107;DHT22;540;49.448;8.612;2022-08-19T06:27:37;23.30;88.10
1107;DHT22;540;49.448;8.612;2022-08-19T06:30:25;23.30;87.60
1107;DHT22;540;49.448;8.612;2022-08-19T06:32:53;23.50;88.10
1107;DHT22;540;49.448;8.612;2022-08-19T06:35:22;23.50;88.10
1107;DHT22;540;49.448;8.612;2022-08-19T06:37:50;23.30;89.00
1107;DHT22;540;49.448;8.612;2022-08-19T06:40:19;23.30;89.70
1107;DHT22;540;49.448;8.612;2022-08-19T06:42:47;23.20;89.30
1107;DHT22;540;49.448;8.612;2022-08-19T06:45:21;23.20;89.90
1107;DHT22;540;49.448;8.612;2022-08-19T06:47:51;23.20;90.20
1107;DHT22;540;49.448;8.612;2022-08-19T06:50:23;23.30;89.70
1107;DHT22;540;49.448;8.612;2022-08-19T06:52:52;23.40;88.60
1107;DHT22;540;49.448;8.612;2022-08-19T06:55:21;23.60;86.90
1107;DHT22;540;49.448;8.612;2022-08-19T06:57:49;23.60;86.70
1107;DHT22;540;49.448;8.612;2022-08-19T07:00:20;23.70;85.40
1107;DHT22;540;49.448;8.612;2022-08-19T07:02:48;23.80;85.20
1107;DHT22;540;49.448;8.612;2022-08-19T07:05:26;24.00;83.80
1107;DHT22;540;49.448;8.612;2022-08-19T07:07:54;24.00;83.40
1107;DHT22;540;49.448;8.612;2022-08-19T07:10:30;24.00;83.70
1107;DHT22;540;49.448;8.612;2022-08-19T07:13:00;24.10;82.80
1107;DHT22;540;49.448;8.612;2022-08-19T07:15:28;24.20;83.00
1107;DHT22;540;49.448;8.612;2022-08-19T07:17:57;24.40;82.50
1107;DHT22;540;49.448;8.612;2022-08-19T07:20:26;24.40;82.00
1107;DHT22;540;49.448;8.612;2022-08-19T07:22:55;24.60;80.70
1107;DHT22;540;49.448;8.612;2022-08-19T07:25:23;24.80;79.50
1107;DHT22;540;49.448;8.612;2022-08-19T07:27:58;24.90;78.10
1107;DHT22;540;49.448;8.612;2022-08-19T07:30:27;25.10;78.00
1107;DHT22;540;49.448;8.612;2022-08-19T07:32:57;25.10;77.40
1107;DHT22;540;49.448;8.612;2022-08-19T07:35:30;25.20;77.50
1107;DHT22;540;49.448;8.612;2022-08-19T07:37:58;25.20;77.90
1107;DHT22;540;49.448;8.612;2022-08-19T07:40:30;25.20;77.50
1107;DHT22;540;49.448;8.612;2022-08-19T07:42:58;25.00;78.40
1107;DHT22;540;49.448;8.612;2022-08-19T07:45:25;25.00;78.30
1107;DHT22;540;49.448;8.612;2022-08-19T07:47:54;25.10;77.60
1107;DHT22;540;49.448;8.612;2022-08-19T07:50:22;25.30;76.30
1107;DHT22;540;49.448;8.612;2022-08-19T07:52:51;25.30;76.50
1107;DHT22;540;49.448;8.612;2022-08-19T07:55:22;25.30;76.10
1107;DHT22;540;49.448;8.612;2022-08-19T07:58:06;25.40;76.10
1107;DHT22;540;49.448;8.612;2022-08-19T08:00:34;25.70;74.60
1107;DHT22;540;49.448;8.612;2022-08-19T08:03:02;26.40;72.40
1107;DHT22;540;49.448;8.612;2022-08-19T08:05:31;27.20;67.50
1107;DHT22;540;49.448;8.612;2022-08-19T08:08:17;28.00;63.50
1107;DHT22;540;49.448;8.612;2022-08-19T08:11:11;28.60;60.20
1107;DHT22;540;49.448;8.612;2022-08-19T08:13:41;28.90;58.10
1107;DHT22;540;49.448;8.612;2022-08-19T08:16:09;28.70;57.60
1107;DHT22;540;49.448;8.612;2022-08-19T08:18:40;28.90;57.50
1107;DHT22;540;49.448;8.612;2022-08-19T08:21:18;29.00;57.50
1107;DHT22;540;49.448;8.612;2022-08-19T08:23:47;29.00;57.30
1107;DHT22;540;49.448;8.612;2022-08-19T08:26:18;29.10;56.50
1107;DHT22;540;49.448;8.612;2022-08-19T08:28:46;29.30;55.50
1107;DHT22;540;49.448;8.612;2022-08-19T08:31:15;29.00;55.50
1107;DHT22;540;49.448;8.612;2022-08-19T08:33:46;28.60;56.90
1107;DHT22;540;49.448;8.612;2022-08-19T08:36:15;29.30;56.50
1107;DHT22;540;49.448;8.612;2022-08-19T08:38:44;30.00;54.50
1107;DHT22;540;49.448;8.612;2022-08-19T08:41:19;31.10;52.30
1107;DHT22;540;49.448;8.612;2022-08-19T08:43:51;31.80;49.70
1107;DHT22;540;49.448;8.612;2022-08-19T08:46:24;32.50;48.40
1107;DHT22;540;49.448;8.612;2022-08-19T08:49:02;32.70;47.30
1107;DHT22;540;49.448;8.612;2022-08-19T08:51:34;33.50;44.90
1107;DHT22;540;49.448;8.612;2022-08-19T08:54:05;33.80;44.00
1107;DHT22;540;49.448;8.612;2022-08-19T08:56:39;34.00;43.00
1107;DHT22;540;49.448;8.612;2022-08-19T08:59:15;34.40;42.20
1107;DHT22;540;49.448;8.612;2022-08-19T09:01:43;34.30;42.10
1107;DHT22;540;49.448;8.612;2022-08-19T09:04:12;34.70;41.00
1107;DHT22;540;49.448;8.612;2022-08-19T09:06:47;34.80;40.00
1107;DHT22;540;49.448;8.612;2022-08-19T09:09:22;34.90;39.80
1107;DHT22;540;49.448;8.612;2022-08-19T09:12:05;35.00;39.70
1107;DHT22;540;49.448;8.612;2022-08-19T09:14:43;35.00;39.40
1107;DHT22;540;49.448;8.612;2022-08-19T09:17:18;35.30;38.70
1107;DHT22;540;49.448;8.612;2022-08-19T09:19:51;35.50;38.50
1107;DHT22;540;49.448;8.612;2022-08-19T09:22:19;35.80;37.80
1107;DHT22;540;49.448;8.612;2022-08-19T09:24:53;36.50;36.70
1107;DHT22;540;49.448;8.612;2022-08-19T09:27:24;36.50;35.80
1107;DHT22;540;49.448;8.612;2022-08-19T09:30:16;36.10;35.20
1107;DHT22;540;49.448;8.612;2022-08-19T09:32:44;35.80;36.00
1107;DHT22;540;49.448;8.612;2022-08-19T09:35:19;36.10;35.60
1107;DHT22;540;49.448;8.612;2022-08-19T09:37:49;36.80;33.90
1107;DHT22;540;49.448;8.612;2022-08-19T09:40:24;37.10;33.00
1107;DHT22;540;49.448;8.612;2022-08-19T09:42:57;36.60;33.40
1107;DHT22;540;49.448;8.612;2022-08-19T09:45:37;36.00;35.00
1107;DHT22;540;49.448;8.612;2022-08-19T09:48:04;35.40;35.50
1107;DHT22;540;49.448;8.612;2022-08-19T09:50:32;34.90;36.60
1107;DHT22;540;49.448;8.612;2022-08-19T09:53:00;34.70;36.90
1107;DHT22;540;49.448;8.612;2022-08-19T09:55:28;34.50;37.40
1107;DHT22;540;49.448;8.612;2022-08-19T09:58:02;35.00;36.70
1107;DHT22;540;49.448;8.612;2022-08-19T10:00:31;35.20;35.80
1107;DHT22;540;49.448;8.612;2022-08-19T10:02:59;34.60;37.00
1107;DHT22;540;49.448;8.612;2022-08-19T10:05:29;34.30;38.00
1107;DHT22;540;49.448;8.612;2022-08-19T10:08:16;34.70;37.80
1107;DHT22;540;49.448;8.612;2022-08-19T10:10:46;34.20;38.20
1107;DHT22;540;49.448;8.612;2022-08-19T10:13:18;34.10;38.00
1107;DHT22;540;49.448;8.612;2022-08-19T10:15:48;33.60;39.00
1107;DHT22;540;49.448;8.612;2022-08-19T10:18:18;33.30;40.10
1107;DHT22;540;49.448;8.612;2022-08-19T10:20:47;33.10;39.70
1107;DHT22;540;49.448;8.612;2022-08-19T10:23:19;33.40;38.90
1107;DHT22;540;49.448;8.612;2022-08-19T10:25:48;33.50;38.70
1107;DHT22;540;49.448;8.612;2022-08-19T10:28:18;33.90;38.10
1107;DHT22;540;49.448;8.612;2022-08-19T10:30:46;34.10;37.40
1107;DHT22;540;49.448;8.612;2022-08-19T10:33:14;34.60;36.50
1107;DHT22;540;49.448;8.612;2022-08-19T10:36:05;35.00;35.30
1107;DHT22;540;49.448;8.612;2022-08-19T10:38:33;34.50;36.00
1107;DHT22;540;49.448;8.612;2022-08-19T10:41:10;34.40;36.30
1107;DHT22;540;49.448;8.612;2022-08-19T10:43:40;34.80;35.80
1107;DHT22;540;49.448;8.612;2022-08-19T10:46:10;35.30;33.80
1107;DHT22;540;49.448;8.612;2022-08-19T10:48:40;35.40;33.30
1107;DHT22;540;49.448;8.612;2022-08-19T10:51:08;35.80;32.30
1107;DHT22;540;49.448;8.612;2022-08-19T10:53:54;36.20;32.70
1107;DHT22;540;49.448;8.612;2022-08-19T10:56:22;36.40;32.00
1107;DHT22;540;49.448;8.612;2022-08-19T10:59:09;36.40;32.00
1107;DHT22;540;49.448;8.612;2022-08-19T11:01:37;35.20;33.60
1107;DHT22;540;49.448;8.612;2022-08-19T11:04:05;34.30;35.30
1107;DHT22;540;49.448;8.612;2022-08-19T11:06:36;33.60;36.80
1107;DHT22;540;49.448;8.612;2022-08-19T11:09:05;33.10;37.70
1107;DHT22;540;49.448;8.612;2022-08-19T11:11:33;32.70;38.30
1107;DHT22;540;49.448;8.612;2022-08-19T11:14:11;32.80;39.10
1107;DHT22;540;49.448;8.612;2022-08-19T11:16:41;33.10;38.80
1107;DHT22;540;49.448;8.612;2022-08-19T11:19:11;32.70;39.50
1107;DHT22;540;49.448;8.612;2022-08-19T11:21:41;32.20;40.70
1107;DHT22;540;49.448;8.612;2022-08-19T11:24:11;31.80;41.60
1107;DHT22;540;49.448;8.612;2022-08-19T11:26:42;31.20;42.80
1107;DHT22;540;49.448;8.612;2022-08-19T11:29:12;31.40;42.80
1107;DHT22;540;49.448;8.612;2022-08-19T11:31:42;31.50;42.20
1107;DHT22;540;49.448;8.612;2022-08-19T11:34:13;31.60;42.10
1107;DHT22;540;49.448;8.612;2022-08-19T11:36:42;31.70;41.40
1107;DHT22;540;49.448;8.612;2022-08-19T11:39:13;31.40;41.70
1107;DHT22;540;49.448;8.612;2022-08-19T11:41:41;31.90;41.00
1107;DHT22;540;49.448;8.612;2022-08-19T11:44:09;32.40;39.50
1107;DHT22;540;49.448;8.612;2022-08-19T11:46:38;33.00;39.00
1107;DHT22;540;49.448;8.612;2022-08-19T11:49:07;32.80;38.60
1107;DHT22;540;49.448;8.612;2022-08-19T11:51:40;32.50;38.70
1107;DHT22;540;49.448;8.612;2022-08-19T11:54:10;32.60;38.90
1107;DHT22;540;49.448;8.612;2022-08-19T11:56:39;32.80;38.70
1107;DHT22;540;49.448;8.612;2022-08-19T11:59:08;32.20;39.00
1107;DHT22;540;49.448;8.612;2022-08-19T12:01:42;32.00;39.60
1107;DHT22;540;49.448;8.612;2022-08-19T12:04:10;32.30;39.10
1107;DHT22;540;49.448;8.612;2022-08-19T12:06:40;32.60;39.00
1107;DHT22;540;49.448;8.612;2022-08-19T12:09:09;33.00;38.10
1107;DHT22;540;49.448;8.612;2022-08-19T12:11:38;33.20;36.70
1107;DHT22;540;49.448;8.612;2022-08-19T12:14:09;33.10;36.50
1107;DHT22;540;49.448;8.612;2022-08-19T12:16:43;32.90;36.80
1107;DHT22;540;49.448;8.612;2022-08-19T12:19:18;32.60;37.60
1107;DHT22;540;49.448;8.612;2022-08-19T12:21:48;32.20;38.50
1107;DHT22;540;49.448;8.612;2022-08-19T12:24:17;31.90;38.60
1107;DHT22;540;49.448;8.612;2022-08-19T12:26:49;31.80;39.10
1107;DHT22;540;49.448;8.612;2022-08-19T12:29:19;32.20;38.30
1107;DHT22;540;49.448;8.612;2022-08-19T12:31:51;32.20;38.20
1107;DHT22;540;49.448;8.612;2022-08-19T12:34:19;32.40;37.30
1107;DHT22;540;49.448;8.612;2022-08-19T12:36:48;32.80;36.90
1107;DHT22;540;49.448;8.612;2022-08-19T12:39:16;33.20;36.70
1107;DHT22;540;49.448;8.612;2022-08-19T12:41:44;33.60;35.90
1107;DHT22;540;49.448;8.612;2022-08-19T12:44:21;33.20;36.40
1107;DHT22;540;49.448;8.612;2022-08-19T12:46:58;32.90;37.00
1107;DHT22;540;49.448;8.612;2022-08-19T12:49:29;32.30;36.70
1107;DHT22;540;49.448;8.612;2022-08-19T12:52:18;32.10;37.10
1107;DHT22;540;49.448;8.612;2022-08-19T12:54:49;32.00;37.70
1107;DHT22;540;49.448;8.612;2022-08-19T12:57:19;31.90;37.60
1107;DHT22;540;49.448;8.612;2022-08-19T12:59:52;32.20;37.40
1107;DHT22;540;49.448;8.612;2022-08-19T13:02:22;32.50;37.00
1107;DHT22;540;49.448;8.612;2022-08-19T13:04:50;32.50;35.70
1107;DHT22;540;49.448;8.612;2022-08-19T13:07:18;32.40;35.50
1107;DHT22;540;49.448;8.612;2022-08-19T13:09:46;32.40;35.70
1107;DHT22;540;49.448;8.612;2022-08-19T13:12:13;32.80;34.60
1107;DHT22;540;49.448;8.612;2022-08-19T13:14:42;33.20;34.20
1107;DHT22;540;49.448;8.612;2022-08-19T13:17:12;33.50;33.70
1107;DHT22;540;49.448;8.612;2022-08-19T13:19:43;33.60;33.30
1107;DHT22;540;49.448;8.612;2022-08-19T13:22:11;33.80;32.80
1107;DHT22;540;49.448;8.612;2022-08-19T13:24:40;33.40;33.40
1107;DHT22;540;49.448;8.612;2022-08-19T13:27:14;33.10;34.30
1107;DHT22;540;49.448;8.612;2022-08-19T13:29:42;33.20;34.00
1107;DHT22;540;49.448;8.612;2022-08-19T13:32:28;33.40;33.60
1107;DHT22;540;49.448;8.612;2022-08-19T13:35:16;33.30;33.00
1107;DHT22;540;49.448;8.612;2022-08-19T13:37:44;33.50;31.40
1107;DHT22;540;49.448;8.612;2022-08-19T13:40:14;33.20;33.60
1107;DHT22;540;49.448;8.612;2022-08-19T13:42:46;33.40;33.20
1107;DHT22;540;49.448;8.612;2022-08-19T13:45:14;33.20;33.90
1107;DHT22;540;49.448;8.612;2022-08-19T13:47:45;33.00;33.70
1107;DHT22;540;49.448;8.612;2022-08-19T13:50:17;32.90;34.10
1107;DHT22;540;49.448;8.612;2022-08-19T13:52:46;32.40;34.50
1107;DHT22;540;49.448;8.612;2022-08-19T13:55:15;32.30;35.00
1107;DHT22;540;49.448;8.612;2022-08-19T13:57:51;32.00;34.80
1107;DHT22;540;49.448;8.612;2022-08-19T14:00:20;32.10;34.40
1107;DHT22;540;49.448;8.612;2022-08-19T14:02:51;32.20;34.20
1107;DHT22;540;49.448;8.612;2022-08-19T14:05:20;32.30;34.20
1107;DHT22;540;49.448;8.612;2022-08-19T14:07:49;32.10;34.60
1107;DHT22;540;49.448;8.612;2022-08-19T14:10:18;32.50;33.80
1107;DHT22;540;49.448;8.612;2022-08-19T14:12:46;32.50;33.90
1107;DHT22;540;49.448;8.612;2022-08-19T14:15:15;32.60;34.40
1107;DHT22;540;49.448;8.612;2022-08-19T14:17:44;32.70;33.20
1107;DHT22;540;49.448;8.612;2022-08-19T14:20:15;32.40;33.30
1107;DHT22;540;49.448;8.612;2022-08-19T14:22:46;32.50;33.30
1107;DHT22;540;49.448;8.612;2022-08-19T14:25:17;32.70;32.60
1107;DHT22;540;49.448;8.612;2022-08-19T14:27:45;33.10;30.20
1107;DHT22;540;49.448;8.612;2022-08-19T14:30:15;33.20;30.00
1107;DHT22;540;49.448;8.612;2022-08-19T14:32:43;33.30;29.80
1107;DHT22;540;49.448;8.612;2022-08-19T14:35:12;33.30;29.00
1107;DHT22;540;49.448;8.612;2022-08-19T14:37:42;33.40;29.80
1107;DHT22;540;49.448;8.612;2022-08-19T14:40:14;33.40;30.30
1107;DHT22;540;49.448;8.612;2022-08-19T14:42:43;33.40;31.30
1107;DHT22;540;49.448;8.612;2022-08-19T14:45:11;33.20;31.10
1107;DHT22;540;49.448;8.612;2022-08-19T14:47:39;33.00;31.20
1107;DHT22;540;49.448;8.612;2022-08-19T14:50:09;32.80;29.60
1107;DHT22;540;49.448;8.612;2022-08-19T14:52:44;32.80;29.10
1107;DHT22;540;49.448;8.612;2022-08-19T14:55:14;32.60;28.80
1107;DHT22;540;49.448;8.612;2022-08-19T14:57:43;32.60;29.00
1107;DHT22;540;49.448;8.612;2022-08-19T15:00:13;32.70;29.20
1107;DHT22;540;49.448;8.612;2022-08-19T15:02:41;32.80;29.10
1107;DHT22;540;49.448;8.612;2022-08-19T15:05:10;32.90;29.10
1107;DHT22;540;49.448;8.612;2022-08-19T15:07:39;33.00;29.40
1107;DHT22;540;49.448;8.612;2022-08-19T15:10:09;32.80;29.90
1107;DHT22;540;49.448;8.612;2022-08-19T15:12:39;32.70;30.50
1107;DHT22;540;49.448;8.612;2022-08-19T15:15:08;32.60;30.60
1107;DHT22;540;49.448;8.612;2022-08-19T15:17:39;32.60;30.40
1107;DHT22;540;49.448;8.612;2022-08-19T15:20:14;32.30;30.80
1107;DHT22;540;49.448;8.612;2022-08-19T15:22:42;32.30;30.60
1107;DHT22;540;49.448;8.612;2022-08-19T15:25:12;32.40;30.90
1107;DHT22;540;49.448;8.612;2022-08-19T15:27:42;32.50;30.80
1107;DHT22;540;49.448;8.612;2022-08-19T15:30:11;32.40;31.90
1107;DHT22;540;49.448;8.612;2022-08-19T15:32:39;32.10;32.40
1107;DHT22;540;49.448;8.612;2022-08-19T15:35:11;32.10;32.10
1107;DHT22;540;49.448;8.612;2022-08-19T15:37:39;32.10;32.20
1107;DHT22;540;49.448;8.612;2022-08-19T15:40:08;32.00;32.30
1107;DHT22;540;49.448;8.612;2022-08-19T15:42:37;31.80;32.10
1107;DHT22;540;49.448;8.612;2022-08-19T15:45:10;31.40;32.30
1107;DHT22;540;49.448;8.612;2022-08-19T15:47:38;31.20;33.00
1107;DHT22;540;49.448;8.612;2022-08-19T15:50:09;31.30;33.40
1107;DHT22;540;49.448;8.612;2022-08-19T15:52:44;31.30;33.50
1107;DHT22;540;49.448;8.612;2022-08-19T15:55:16;31.50;33.40
1107;DHT22;540;49.448;8.612;2022-08-19T15:58:00;31.70;33.10
1107;DHT22;540;49.448;8.612;2022-08-19T16:00:56;31.60;32.90
1107;DHT22;540;49.448;8.612;2022-08-19T16:03:46;31.40;32.90
1107;DHT22;540;49.448;8.612;2022-08-19T16:06:42;31.10;33.70
1107;DHT22;540;49.448;8.612;2022-08-19T16:09:10;30.70;34.80
1107;DHT22;540;49.448;8.612;2022-08-19T16:11:38;30.50;35.10
1107;DHT22;540;49.448;8.612;2022-08-19T16:14:12;30.40;35.20
1107;DHT22;540;49.448;8.612;2022-08-19T16:16:42;30.30;34.80
1107;DHT22;540;49.448;8.612;2022-08-19T16:19:14;30.20;34.70
1107;DHT22;540;49.448;8.612;2022-08-19T16:21:43;30.10;35.20
1107;DHT22;540;49.448;8.612;2022-08-19T16:24:12;30.10;35.80
1107;DHT22;540;49.448;8.612;2022-08-19T16:26:41;29.80;35.80
1107;DHT22;540;49.448;8.612;2022-08-19T16:29:10;29.70;35.90
1107;DHT22;540;49.448;8.612;2022-08-19T16:31:42;29.70;36.20
1107;DHT22;540;49.448;8.612;2022-08-19T16:34:10;29.70;36.40
1107;DHT22;540;49.448;8.612;2022-08-19T16:36:39;29.70;36.10
1107;DHT22;540;49.448;8.612;2022-08-19T16:39:10;29.80;36.10
1107;DHT22;540;49.448;8.612;2022-08-19T16:41:39;29.80;35.70
1107;DHT22;540;49.448;8.612;2022-08-19T16:44:08;29.80;35.80